St Solene — FVDG — position and weather

sailwx.info

Track history (hours):
 
Tides and Currents Weather Stations Pressure Air Temp Water Temp Dewpoint Dewpoint Depression Visibility Wind Speed Wind Dir Waves Ship Positions

St Solene

Last reported at 2015-Sep-03 20:33 UTC. Time now 2015-Sep-03 21:30 UTC.
Position N 37°25' E 012°16'.

Length 104 m; draft 6.4 m.

Type: Tanker. MMSI: 226302000.

Date/timePositionNaut miles runAvg speedWind from/ knotsBaromVisibWave heightAir tempDewpointWater temp
2015-Sep-03 20:33N 37°25' E 012°16'1211.5
2015-Sep-03 19:33N 37°16' E 012°26'1211.8
2015-Sep-03 18:32N 37°08' E 012°38'1111.5
2015-Sep-03 17:33N 37°02' E 012°49'1111.3
2015-Sep-03 16:33N 36°55' E 013°01'1111.0
2015-Sep-03 15:32N 36°49' E 013°12'2410.7
2015-Sep-03 13:16N 36°35' E 013°37'1910.8
2015-Sep-03 11:30N 36°24' E 013°56'1111.1
2015-Sep-03 10:33N 36°18' E 014°07'1111.3
2015-Sep-03 09:33N 36°11' E 014°18'1111.3
2015-Sep-03 08:33N 36°05' E 014°30'1111.2
2015-Sep-03 07:33N 35°58' E 014°41'6 5.0
2015-Sep-03 06:19N 35°55' E 014°47'0 0.0
2015-Sep-03 05:28N 35°55' E 014°47'0 0.0
2015-Sep-03 04:31N 35°55' E 014°47'0 0.0
2015-Sep-03 03:04N 35°55' E 014°47'0 0.0
2015-Sep-03 02:10N 35°55' E 014°47'0 0.0
2015-Sep-03 01:25N 35°55' E 014°47'0 0.0
2015-Sep-03 00:31N 35°55' E 014°47'0 0.0
2015-Sep-02 20:31N 35°55' E 014°47'0 0.0
2015-Sep-02 17:29N 35°55' E 014°47'0 0.0
2015-Sep-02 16:32N 35°55' E 014°47'0 0.0
2015-Sep-02 15:23N 35°55' E 014°47'0 0.0
2015-Sep-02 14:33N 35°55' E 014°47'0 0.0
2015-Sep-02 13:33N 35°55' E 014°47'6 6.1
2015-Sep-02 12:33N 35°51' E 014°41'7 0.3
2015-Sep-01 12:18N 35°49' E 014°33'7 6.2
2015-Sep-01 11:10N 35°45' E 014°26'6 9.9
2015-Sep-01 10:33N 35°48' E 014°19'1110.7
2015-Sep-01 09:33N 35°56' E 014°10'1110.8
2015-Sep-01 08:33N 36°03' E 014°00'1111.1
2015-Sep-01 07:33N 36°11' E 013°50'1311.0
2015-Sep-01 06:21N 36°20' E 013°39'2111.7
2015-Sep-01 04:33N 36°35' E 013°20'1211.7
2015-Sep-01 03:33N 36°43' E 013°10'1312.6
2015-Sep-01 02:33N 36°52' E 012°58'1212.3
2015-Sep-01 01:33N 37°00' E 012°48'1212.2
2015-Sep-01 00:33N 37°09' E 012°36'1212.1
2015-Aug-31 23:33N 37°17' E 012°25'1312.3
2015-Aug-31 22:31N 37°26' E 012°14'1312.4
2015-Aug-31 21:29N 37°35' E 012°03'1211.2
2015-Aug-31 20:26N 37°45' E 011°56'1612.1
2015-Aug-31 19:07N 38°00' E 011°50'611.6
2015-Aug-31 18:33N 38°06' E 011°47'1211.7
2015-Aug-31 17:33N 38°17' E 011°42'7111.5
2015-Aug-31 11:21N 39°25' E 011°11'911.5
2015-Aug-31 10:32N 39°33' E 011°07'1211.8
2015-Aug-31 09:33N 39°44' E 011°02'1211.9
2015-Aug-31 08:33N 39°56' E 010°57'1311.9
2015-Aug-31 07:25N 40°08' E 010°51'1011.8
2015-Aug-31 06:32N 40°18' E 010°46'2511.6
2015-Aug-31 04:23N 40°42' E 010°35'1011.5
2015-Aug-31 03:33N 40°51' E 010°31'3911.7
2015-Aug-31 00:13N 41°27' E 010°13'2412.1
2015-Aug-30 22:13N 41°50' E 010°02'2012.1
2015-Aug-30 20:33N 42°09' E 009°53'28 1.0
2015-Aug-29 16:19N 42°33' E 009°33'42 7.4
2015-Aug-29 10:33N 43°14' E 009°18'1111.1
2015-Aug-29 09:33N 43°12' E 009°03'2311.1
2015-Aug-29 07:28N 43°07' E 008°32'2310.9
2015-Aug-29 05:20N 43°02' E 008°01'3111.1
2015-Aug-29 02:33N 42°56' E 007°20'1110.9
2015-Aug-29 01:33N 42°54' E 007°05'1111.0
2015-Aug-29 00:33N 42°51' E 006°50'1110.6
2015-Aug-28 23:33N 42°49' E 006°36'3310.3
2015-Aug-28 20:18N 42°50' E 005°51'810.8
2015-Aug-28 19:33N 42°52' E 005°40'1510.8
2015-Aug-28 18:09N 42°55' E 005°20'811.2
2015-Aug-28 17:25N 42°58' E 005°09'910.2
2015-Aug-28 16:33N 43°06' E 005°03'1111.2
2015-Aug-28 15:33N 43°16' E 004°59'9 9.5
2015-Aug-28 14:33N 43°25' E 004°53'1 1.0
2015-Aug-28 13:33N 43°26' E 004°54'0 0.0
2015-Aug-28 12:34N 43°26' E 004°54'0 0.0
2015-Aug-28 11:33N 43°26' E 004°54'0 0.0
2015-Aug-28 10:33N 43°26' E 004°54'0 0.0
2015-Aug-28 09:33N 43°26' E 004°54'0 0.0
2015-Aug-28 08:34N 43°26' E 004°54'0 0.0
2015-Aug-28 07:33N 43°26' E 004°54'0 0.0
2015-Aug-28 06:33N 43°26' E 004°54'0 0.0
2015-Aug-28 05:34N 43°26' E 004°54'0 0.0
2015-Aug-28 04:34N 43°26' E 004°54'0 0.0
2015-Aug-28 03:33N 43°26' E 004°54'0 0.0
2015-Aug-28 02:33N 43°26' E 004°54'0 0.0
2015-Aug-28 01:33N 43°26' E 004°54'0 0.0
2015-Aug-28 00:33N 43°26' E 004°54'0 0.0
2015-Aug-27 23:33N 43°26' E 004°54'0 0.0
2015-Aug-27 22:33N 43°26' E 004°54'0 0.2
2015-Aug-27 21:33N 43°25' E 004°54'2 2.3
2015-Aug-27 20:34N 43°25' E 004°56'0 0.0
2015-Aug-27 19:34N 43°25' E 004°56'0 0.0
2015-Aug-27 18:33N 43°25' E 004°56'0 0.0
2015-Aug-27 17:33N 43°25' E 004°57'0 0.0
2015-Aug-27 16:33N 43°25' E 004°57'0 0.0
2015-Aug-27 15:33N 43°25' E 004°57'0 0.0
2015-Aug-27 14:34N 43°25' E 004°57'0 0.0
2015-Aug-27 13:33N 43°25' E 004°57'0 0.0
2015-Aug-27 12:33N 43°25' E 004°56'0 0.0
2015-Aug-27 11:33N 43°25' E 004°57'0 0.0
2015-Aug-27 10:33N 43°25' E 004°57'0 0.0
2015-Aug-27 09:34N 43°25' E 004°57'0 0.0
2015-Aug-27 08:34N 43°25' E 004°57'0 0.0
2015-Aug-27 07:33N 43°25' E 004°56'0 0.0
2015-Aug-27 06:34N 43°25' E 004°56'0 0.0
2015-Aug-27 05:33N 43°25' E 004°56'0 0.0
2015-Aug-27 04:33N 43°25' E 004°56'0 0.0
2015-Aug-27 03:33N 43°25' E 004°56'0 0.0
2015-Aug-27 02:33N 43°25' E 004°56'0 0.0
2015-Aug-27 01:34N 43°25' E 004°56'0 0.0
2015-Aug-27 00:34N 43°25' E 004°56'0 0.0
2015-Aug-26 23:34N 43°25' E 004°56'0 0.0
2015-Aug-26 22:33N 43°25' E 004°56'0 0.0
2015-Aug-26 21:33N 43°25' E 004°56'0 0.0
2015-Aug-26 20:33N 43°25' E 004°56'0 0.0
2015-Aug-26 19:34N 43°25' E 004°56'4 3.7
2015-Aug-26 18:33N 43°21' E 004°58'1111.2
2015-Aug-26 17:34N 43°11' E 005°06'3511.3
2015-Aug-26 14:31N 43°01' E 005°51'1412.0
2015-Aug-26 13:19N 42°57' E 006°10'1012.5
2015-Aug-26 12:33N 42°57' E 006°23'1312.7
2015-Aug-26 11:33N 42°57' E 006°40'1212.4
2015-Aug-26 10:33N 42°58' E 006°57'1212.2
2015-Aug-26 09:33N 42°59' E 007°14'1611.8
2015-Aug-26 08:14N 43°01' E 007°35'  
Track history (hours):
 
Tides and Currents Weather Stations Pressure Air Temp Water Temp Dewpoint Dewpoint Depression Visibility Wind Speed Wind Dir Waves Ship Positions

St Solene

Last reported at 2015-Sep-03 20:33 UTC. Time now 2015-Sep-03 21:30 UTC.
Position N 37°25' E 012°16'.

Length 104 m; draft 6.4 m.

Type: Tanker. MMSI: 226302000.

Date/timePositionNaut miles runAvg speedWind from/ knotsBaromVisibWave heightAir tempDewpointWater temp
2015-Sep-03 20:33N 37°25' E 012°16'1211.5
2015-Sep-03 19:33N 37°16' E 012°26'1211.8
2015-Sep-03 18:32N 37°08' E 012°38'1111.5
2015-Sep-03 17:33N 37°02' E 012°49'1111.3
2015-Sep-03 16:33N 36°55' E 013°01'1111.0
2015-Sep-03 15:32N 36°49' E 013°12'2410.7
2015-Sep-03 13:16N 36°35' E 013°37'1910.8
2015-Sep-03 11:30N 36°24' E 013°56'1111.1
2015-Sep-03 10:33N 36°18' E 014°07'1111.3
2015-Sep-03 09:33N 36°11' E 014°18'1111.3
2015-Sep-03 08:33N 36°05' E 014°30'1111.2
2015-Sep-03 07:33N 35°58' E 014°41'6 5.0
2015-Sep-03 06:19N 35°55' E 014°47'0 0.0
2015-Sep-03 05:28N 35°55' E 014°47'0 0.0
2015-Sep-03 04:31N 35°55' E 014°47'0 0.0
2015-Sep-03 03:04N 35°55' E 014°47'0 0.0
2015-Sep-03 02:10N 35°55' E 014°47'0 0.0
2015-Sep-03 01:25N 35°55' E 014°47'0 0.0
2015-Sep-03 00:31N 35°55' E 014°47'0 0.0
2015-Sep-02 20:31N 35°55' E 014°47'0 0.0
2015-Sep-02 17:29N 35°55' E 014°47'0 0.0
2015-Sep-02 16:32N 35°55' E 014°47'0 0.0
2015-Sep-02 15:23N 35°55' E 014°47'0 0.0
2015-Sep-02 14:33N 35°55' E 014°47'0 0.0
2015-Sep-02 13:33N 35°55' E 014°47'6 6.1
2015-Sep-02 12:33N 35°51' E 014°41'7 0.3
2015-Sep-01 12:18N 35°49' E 014°33'7 6.2
2015-Sep-01 11:10N 35°45' E 014°26'6 9.9
2015-Sep-01 10:33N 35°48' E 014°19'1110.7
2015-Sep-01 09:33N 35°56' E 014°10'1110.8
2015-Sep-01 08:33N 36°03' E 014°00'1111.1
2015-Sep-01 07:33N 36°11' E 013°50'1311.0
2015-Sep-01 06:21N 36°20' E 013°39'2111.7
2015-Sep-01 04:33N 36°35' E 013°20'1211.7
2015-Sep-01 03:33N 36°43' E 013°10'1312.6
2015-Sep-01 02:33N 36°52' E 012°58'1212.3
2015-Sep-01 01:33N 37°00' E 012°48'1212.2
2015-Sep-01 00:33N 37°09' E 012°36'1212.1
2015-Aug-31 23:33N 37°17' E 012°25'1312.3
2015-Aug-31 22:31N 37°26' E 012°14'1312.4
2015-Aug-31 21:29N 37°35' E 012°03'1211.2
2015-Aug-31 20:26N 37°45' E 011°56'1612.1
2015-Aug-31 19:07N 38°00' E 011°50'611.6
2015-Aug-31 18:33N 38°06' E 011°47'1211.7
2015-Aug-31 17:33N 38°17' E 011°42'7111.5
2015-Aug-31 11:21N 39°25' E 011°11'911.5
2015-Aug-31 10:32N 39°33' E 011°07'1211.8
2015-Aug-31 09:33N 39°44' E 011°02'1211.9
2015-Aug-31 08:33N 39°56' E 010°57'1311.9
2015-Aug-31 07:25N 40°08' E 010°51'1011.8
2015-Aug-31 06:32N 40°18' E 010°46'2511.6
2015-Aug-31 04:23N 40°42' E 010°35'1011.5
2015-Aug-31 03:33N 40°51' E 010°31'3911.7
2015-Aug-31 00:13N 41°27' E 010°13'2412.1
2015-Aug-30 22:13N 41°50' E 010°02'2012.1
2015-Aug-30 20:33N 42°09' E 009°53'28 1.0
2015-Aug-29 16:19N 42°33' E 009°33'42 7.4
2015-Aug-29 10:33N 43°14' E 009°18'1111.1
2015-Aug-29 09:33N 43°12' E 009°03'2311.1
2015-Aug-29 07:28N 43°07' E 008°32'2310.9
2015-Aug-29 05:20N 43°02' E 008°01'3111.1
2015-Aug-29 02:33N 42°56' E 007°20'1110.9
2015-Aug-29 01:33N 42°54' E 007°05'1111.0
2015-Aug-29 00:33N 42°51' E 006°50'1110.6
2015-Aug-28 23:33N 42°49' E 006°36'3310.3
2015-Aug-28 20:18N 42°50' E 005°51'810.8
2015-Aug-28 19:33N 42°52' E 005°40'1510.8
2015-Aug-28 18:09N 42°55' E 005°20'811.2
2015-Aug-28 17:25N 42°58' E 005°09'910.2
2015-Aug-28 16:33N 43°06' E 005°03'1111.2
2015-Aug-28 15:33N 43°16' E 004°59'9 9.5
2015-Aug-28 14:33N 43°25' E 004°53'1 1.0
2015-Aug-28 13:33N 43°26' E 004°54'0 0.0
2015-Aug-28 12:34N 43°26' E 004°54'0 0.0
2015-Aug-28 11:33N 43°26' E 004°54'0 0.0
2015-Aug-28 10:33N 43°26' E 004°54'0 0.0
2015-Aug-28 09:33N 43°26' E 004°54'0 0.0
2015-Aug-28 08:34N 43°26' E 004°54'0 0.0
2015-Aug-28 07:33N 43°26' E 004°54'0 0.0
2015-Aug-28 06:33N 43°26' E 004°54'0 0.0
2015-Aug-28 05:34N 43°26' E 004°54'0 0.0
2015-Aug-28 04:34N 43°26' E 004°54'0 0.0
2015-Aug-28 03:33N 43°26' E 004°54'0 0.0
2015-Aug-28 02:33N 43°26' E 004°54'0 0.0
2015-Aug-28 01:33N 43°26' E 004°54'0 0.0
2015-Aug-28 00:33N 43°26' E 004°54'0 0.0
2015-Aug-27 23:33N 43°26' E 004°54'0 0.0
2015-Aug-27 22:33N 43°26' E 004°54'0 0.2
2015-Aug-27 21:33N 43°25' E 004°54'2 2.3
2015-Aug-27 20:34N 43°25' E 004°56'0 0.0
2015-Aug-27 19:34N 43°25' E 004°56'0 0.0
2015-Aug-27 18:33N 43°25' E 004°56'0 0.0
2015-Aug-27 17:33N 43°25' E 004°57'0 0.0
2015-Aug-27 16:33N 43°25' E 004°57'0 0.0
2015-Aug-27 15:33N 43°25' E 004°57'0 0.0
2015-Aug-27 14:34N 43°25' E 004°57'0 0.0
2015-Aug-27 13:33N 43°25' E 004°57'0 0.0
2015-Aug-27 12:33N 43°25' E 004°56'0 0.0
2015-Aug-27 11:33N 43°25' E 004°57'0 0.0
2015-Aug-27 10:33N 43°25' E 004°57'0 0.0
2015-Aug-27 09:34N 43°25' E 004°57'0 0.0
2015-Aug-27 08:34N 43°25' E 004°57'0 0.0
2015-Aug-27 07:33N 43°25' E 004°56'0 0.0
2015-Aug-27 06:34N 43°25' E 004°56'0 0.0
2015-Aug-27 05:33N 43°25' E 004°56'0 0.0
2015-Aug-27 04:33N 43°25' E 004°56'0 0.0
2015-Aug-27 03:33N 43°25' E 004°56'0 0.0
2015-Aug-27 02:33N 43°25' E 004°56'0 0.0
2015-Aug-27 01:34N 43°25' E 004°56'0 0.0
2015-Aug-27 00:34N 43°25' E 004°56'0 0.0
2015-Aug-26 23:34N 43°25' E 004°56'0 0.0
2015-Aug-26 22:33N 43°25' E 004°56'0 0.0
2015-Aug-26 21:33N 43°25' E 004°56'0 0.0
2015-Aug-26 20:33N 43°25' E 004°56'0 0.0
2015-Aug-26 19:34N 43°25' E 004°56'4 3.7
2015-Aug-26 18:33N 43°21' E 004°58'1111.2
2015-Aug-26 17:34N 43°11' E 005°06'3511.3
2015-Aug-26 14:31N 43°01' E 005°51'1412.0
2015-Aug-26 13:19N 42°57' E 006°10'1012.5
2015-Aug-26 12:33N 42°57' E 006°23'1312.7
2015-Aug-26 11:33N 42°57' E 006°40'1212.4
2015-Aug-26 10:33N 42°58' E 006°57'1212.2
2015-Aug-26 09:33N 42°59' E 007°14'1611.8
2015-Aug-26 08:14N 43°01' E 007°35'  

Dump ship's entire track history